Terminal Aerodrome Forecast
Issued by NWS Wilmington, OH

Current Version | Previous Version | Graphics & Text | Print | Product List | Glossary On
Versions: 1 2 3 4 5 6 7 8 9 10 11 12 13 14 15 16 17 18 19 20 21 22 23 24 25 26
494
FTUS41 KILN 252056 AAA
TAFCVG
TAF AMD
KCVG 252056Z 2521/2624 19011KT P6SM SCT050 SCT120 BKN250
     FM260100 19005KT P6SM SCT120 BKN250
     FM260600 19005KT P6SM VCSH BKN040 BKN080
     FM261200 20006KT P6SM BKN040 BKN250
     FM261600 23009KT P6SM SCT040=

USA.gov is the U.S. government's official web portal to all federal, state and local government web resources and services.